createdAt,value
2023-01-28T00:55:40.527Z,22.27
2023-01-28T00:56:41.327Z,22.27
2023-01-28T00:57:41.320Z,22.22
2023-01-28T00:58:41.314Z,22.27
2023-01-28T00:59:41.304Z,22.24
2023-01-28T01:00:41.316Z,22.24
2023-01-28T01:01:41.320Z,22.24
2023-01-28T01:02:42.157Z,22.25
2023-01-28T01:03:41.280Z,22.21
2023-01-28T01:04:41.365Z,22.24
2023-01-28T01:05:41.291Z,22.30
2023-01-28T01:06:41.244Z,22.25
2023-01-28T01:07:41.236Z,22.23
2023-01-28T01:08:41.223Z,22.30
2023-01-28T01:09:41.232Z,22.30
2023-01-28T01:10:41.213Z,22.31
2023-01-28T01:11:41.235Z,22.31
2023-01-28T01:12:41.187Z,22.28
2023-01-28T01:13:41.188Z,22.26
2023-01-28T01:14:41.199Z,22.28
2023-01-28T01:15:41.253Z,22.28
2023-01-28T01:16:41.156Z,22.25
2023-01-28T01:17:41.141Z,22.35
2023-01-28T01:18:41.133Z,22.31
2023-01-28T01:19:41.148Z,22.33
2023-01-28T01:20:41.195Z,22.26
2023-01-28T01:21:41.132Z,22.26
2023-01-28T01:22:41.102Z,22.29
2023-01-28T01:23:41.085Z,22.23
2023-01-28T01:24:41.080Z,22.29
2023-01-28T01:25:41.110Z,22.22
2023-01-28T01:26:41.068Z,22.28
2023-01-28T01:27:41.080Z,22.25
2023-01-28T01:28:41.052Z,22.29
2023-01-28T01:29:41.040Z,22.23
2023-01-28T01:30:41.108Z,22.28
2023-01-28T01:31:41.049Z,22.23
2023-01-28T01:32:41.040Z,22.22
2023-01-28T01:33:41.011Z,22.28
2023-01-28T01:34:41.014Z,22.29
2023-01-28T01:35:40.983Z,22.29
2023-01-28T01:36:41.047Z,22.26
2023-01-28T01:37:40.978Z,22.25
2023-01-28T01:38:40.968Z,22.26
2023-01-28T01:39:40.946Z,22.26
2023-01-28T01:40:40.934Z,22.23
2023-01-28T01:41:40.960Z,22.25
2023-01-28T01:42:40.926Z,22.23
2023-01-28T01:43:40.938Z,22.19
2023-01-28T01:44:40.940Z,22.20
2023-01-28T01:45:40.905Z,22.22
2023-01-28T01:46:40.916Z,22.25
2023-01-28T01:47:40.885Z,22.25
2023-01-28T01:48:40.869Z,22.20
2023-01-28T01:49:40.861Z,22.26
2023-01-28T01:50:40.849Z,22.23
2023-01-28T01:51:40.877Z,22.19
2023-01-28T01:52:40.833Z,22.24
2023-01-28T01:53:40.827Z,22.26
2023-01-28T01:54:40.812Z,22.23
2023-01-28T01:55:40.809Z,22.23
2023-01-28T01:56:40.857Z,22.26
2023-01-28T01:57:40.793Z,22.23
2023-01-28T01:58:40.779Z,22.25
2023-01-28T01:59:40.803Z,22.28
2023-01-28T02:00:40.759Z,22.23
2023-01-28T02:01:40.774Z,22.28
2023-01-28T02:02:40.748Z,22.22
2023-01-28T02:03:40.782Z,22.18
2023-01-28T02:04:40.755Z,22.22
2023-01-28T02:05:40.718Z,22.23
2023-01-28T02:06:40.713Z,22.18
2023-01-28T02:07:40.698Z,22.19
2023-01-28T02:08:40.727Z,22.22
2023-01-28T02:09:40.683Z,22.17
2023-01-28T02:10:40.677Z,22.17
2023-01-28T02:11:40.666Z,22.25
2023-01-28T02:12:40.657Z,22.19
2023-01-28T02:13:40.663Z,22.23
2023-01-28T02:14:40.643Z,22.20
2023-01-28T02:15:40.661Z,22.16
2023-01-28T02:16:40.724Z,22.16
2023-01-28T02:17:40.657Z,22.18
2023-01-28T02:18:40.608Z,22.23
2023-01-28T02:19:40.597Z,22.25
2023-01-28T02:20:40.585Z,22.22
2023-01-28T02:21:40.588Z,22.16
2023-01-28T02:22:40.597Z,22.17
2023-01-28T02:23:40.560Z,22.14
2023-01-28T02:24:40.552Z,22.20
2023-01-28T02:25:40.556Z,22.16
2023-01-28T02:26:40.538Z,22.16
2023-01-28T02:27:40.540Z,22.17
2023-01-28T02:28:40.525Z,22.22
2023-01-28T02:29:40.505Z,22.20
2023-01-28T02:30:40.671Z,22.16
2023-01-28T02:31:40.669Z,22.16
2023-01-28T02:32:40.483Z,22.17
2023-01-28T02:33:40.471Z,22.16
2023-01-28T02:34:40.461Z,22.17
2023-01-28T02:35:40.456Z,22.17
2023-01-28T02:36:40.448Z,22.17
2023-01-28T02:37:40.437Z,22.18
2023-01-28T02:38:40.424Z,22.15
2023-01-28T02:39:40.413Z,22.20
2023-01-28T02:40:40.409Z,22.14
2023-01-28T02:41:40.400Z,22.16
2023-01-28T02:42:40.394Z,22.18
2023-01-28T02:43:40.391Z,22.17
2023-01-28T02:44:40.372Z,22.17
2023-01-28T02:45:40.362Z,22.18
2023-01-28T02:46:40.360Z,22.23
2023-01-28T02:47:40.370Z,22.14
2023-01-28T02:48:40.339Z,22.18
2023-01-28T02:49:40.334Z,22.18
2023-01-28T02:50:40.327Z,22.20
2023-01-28T02:51:40.309Z,22.13
2023-01-28T02:52:40.307Z,22.16
2023-01-28T02:53:40.290Z,22.08
2023-01-28T02:54:40.286Z,22.11
2023-01-28T02:55:40.272Z,22.13
2023-01-28T02:56:40.269Z,22.13
2023-01-28T02:57:40.260Z,22.16
2023-01-28T02:58:40.250Z,22.15
2023-01-28T02:59:40.240Z,22.14
2023-01-28T03:00:40.234Z,22.18
2023-01-28T03:01:40.228Z,22.09
2023-01-28T03:02:40.230Z,22.14
2023-01-28T03:03:40.231Z,22.13
2023-01-28T03:04:40.196Z,22.12
2023-01-28T03:05:40.196Z,22.08
2023-01-28T03:06:40.175Z,22.10
2023-01-28T03:07:40.179Z,22.13
2023-01-28T03:08:40.156Z,22.14
2023-01-28T03:09:40.153Z,22.11
2023-01-28T03:10:40.146Z,22.09
2023-01-28T03:11:40.140Z,22.12
2023-01-28T03:12:40.138Z,22.10
2023-01-28T03:13:40.112Z,22.08
2023-01-28T03:14:40.107Z,22.06
2023-01-28T03:15:40.163Z,22.11
2023-01-28T03:16:40.090Z,22.17
2023-01-28T03:17:40.079Z,22.16
2023-01-28T03:18:40.075Z,22.14
2023-01-28T03:19:40.088Z,22.14
2023-01-28T03:20:40.051Z,22.10
2023-01-28T03:21:40.054Z,22.11
2023-01-28T03:22:40.047Z,22.16
2023-01-28T03:23:40.030Z,22.08
2023-01-28T03:24:40.018Z,22.06
2023-01-28T03:25:40.005Z,22.11
2023-01-28T03:26:40.033Z,22.05
2023-01-28T03:27:39.995Z,22.10
2023-01-28T03:28:39.981Z,22.06
2023-01-28T03:29:41.990Z,22.06
2023-01-28T03:30:39.976Z,22.08
2023-01-28T03:31:39.956Z,22.08
2023-01-28T03:32:39.950Z,22.05
2023-01-28T03:33:39.940Z,22.10
2023-01-28T03:34:39.930Z,22.09
2023-01-28T03:35:39.937Z,22.02
2023-01-28T03:36:39.904Z,22.11
2023-01-28T03:37:39.897Z,22.13
2023-01-28T03:38:39.894Z,22.06
2023-01-28T03:39:39.885Z,22.05
2023-01-28T03:40:39.872Z,22.14
2023-01-28T03:41:39.864Z,22.08
2023-01-28T03:42:39.860Z,22.14
2023-01-28T03:43:39.850Z,22.08
2023-01-28T03:44:39.836Z,22.09
2023-01-28T03:45:39.827Z,22.05
2023-01-28T03:46:39.934Z,22.13
2023-01-28T03:47:39.810Z,22.09
2023-01-28T03:48:39.804Z,22.09
2023-01-28T03:49:39.797Z,22.13
2023-01-28T03:50:39.781Z,22.06
2023-01-28T03:51:39.801Z,22.16
2023-01-28T03:52:39.770Z,22.06
2023-01-28T03:53:39.754Z,22.15
2023-01-28T03:54:39.750Z,22.12
2023-01-28T03:55:39.738Z,22.17
2023-01-28T03:56:39.733Z,22.11
2023-01-28T03:57:39.723Z,22.09
2023-01-28T03:58:39.714Z,22.11
2023-01-28T03:59:39.697Z,22.17
2023-01-28T04:00:39.696Z,22.17
2023-01-28T04:01:39.704Z,22.11
2023-01-28T04:02:39.698Z,22.13
2023-01-28T04:03:39.668Z,22.12
2023-01-28T04:04:39.658Z,22.12
2023-01-28T04:05:39.649Z,22.11
2023-01-28T04:06:39.641Z,22.14
2023-01-28T04:07:39.741Z,22.13
2023-01-28T04:08:39.625Z,22.11
2023-01-28T04:09:39.613Z,22.11
2023-01-28T04:10:39.603Z,22.11
2023-01-28T04:11:39.603Z,22.08
2023-01-28T04:12:39.594Z,22.06
2023-01-28T04:13:39.814Z,22.08
2023-01-28T04:14:39.569Z,22.06
2023-01-28T04:15:39.562Z,22.06
2023-01-28T04:16:39.555Z,22.08
2023-01-28T04:17:39.546Z,22.06
2023-01-28T04:18:39.537Z,22.12
2023-01-28T04:19:39.526Z,22.09
2023-01-28T04:20:39.517Z,22.05
2023-01-28T04:21:39.505Z,22.03
2023-01-28T04:22:39.499Z,22.09
2023-01-28T04:23:39.513Z,22.10
2023-01-28T04:24:39.519Z,22.06
2023-01-28T04:25:39.469Z,22.02
2023-01-28T04:26:39.462Z,22.02
2023-01-28T04:27:39.451Z,22.02
2023-01-28T04:28:39.456Z,22.05
2023-01-28T04:29:39.448Z,22.03
2023-01-28T04:30:39.472Z,22.03
2023-01-28T04:31:39.470Z,22.05
2023-01-28T04:32:39.417Z,22.08
2023-01-28T04:33:39.402Z,22.00
2023-01-28T04:34:39.423Z,21.96
2023-01-28T04:35:39.377Z,21.97
2023-01-28T04:36:39.368Z,22.02
2023-01-28T04:37:39.362Z,22.03
2023-01-28T04:38:39.360Z,21.94
2023-01-28T04:39:39.373Z,22.00
2023-01-28T04:40:39.340Z,22.09
2023-01-28T04:41:39.328Z,22.00
2023-01-28T04:42:39.317Z,22.05
2023-01-28T04:43:39.308Z,22.05
2023-01-28T04:44:39.301Z,22.08
2023-01-28T04:45:39.288Z,22.05
2023-01-28T04:46:39.331Z,22.06
2023-01-28T04:47:39.276Z,22.06
2023-01-28T04:48:39.268Z,22.08
2023-01-28T04:49:39.253Z,22.02
2023-01-28T04:50:39.241Z,22.05
2023-01-28T04:51:39.233Z,22.05
2023-01-28T04:52:39.263Z,22.06
2023-01-28T04:53:39.221Z,22.09
2023-01-28T04:54:39.214Z,22.06
2023-01-28T04:55:39.238Z,22.03
2023-01-28T04:56:39.189Z,22.05
2023-01-28T04:57:39.181Z,22.06
2023-01-28T04:58:39.181Z,22.06
2023-01-28T04:59:39.165Z,21.98
2023-01-28T05:00:39.177Z,22.03
2023-01-28T05:01:39.202Z,22.02
2023-01-28T05:02:39.141Z,22.03
2023-01-28T05:03:39.130Z,22.03
2023-01-28T05:04:39.147Z,22.05
2023-01-28T05:05:39.109Z,22.00
2023-01-28T05:06:39.108Z,22.00
2023-01-28T05:07:39.095Z,22.00
2023-01-28T05:08:39.087Z,22.00
2023-01-28T05:09:39.134Z,22.00
2023-01-28T05:10:39.070Z,21.97
2023-01-28T05:11:39.446Z,22.02
2023-01-28T05:12:39.051Z,21.99
2023-01-28T05:13:39.037Z,21.99
2023-01-28T05:14:39.068Z,21.99
2023-01-28T05:15:39.022Z,21.97
2023-01-28T05:16:39.017Z,21.97
2023-01-28T05:17:39.089Z,21.91
2023-01-28T05:18:38.993Z,21.93
2023-01-28T05:19:38.985Z,21.97
2023-01-28T05:20:38.980Z,21.94
2023-01-28T05:21:38.979Z,21.94
2023-01-28T05:22:38.965Z,22.00
2023-01-28T05:23:38.951Z,22.03
2023-01-28T05:24:38.962Z,22.00
2023-01-28T05:25:38.952Z,21.99
2023-01-28T05:26:38.922Z,22.00
2023-01-28T05:27:38.939Z,21.99
2023-01-28T05:28:38.907Z,22.00
2023-01-28T05:29:38.895Z,21.93
2023-01-28T05:30:38.907Z,21.95
2023-01-28T05:31:38.880Z,21.94
2023-01-28T05:32:38.999Z,21.94
2023-01-28T05:33:38.865Z,21.93
2023-01-28T05:34:38.863Z,21.94
2023-01-28T05:35:38.840Z,21.91
2023-01-28T05:36:38.839Z,21.93
2023-01-28T05:37:38.871Z,21.97
2023-01-28T05:38:38.815Z,21.94
2023-01-28T05:39:38.811Z,21.94
2023-01-28T05:40:38.814Z,21.91
2023-01-28T05:41:38.793Z,21.91
2023-01-28T05:42:38.783Z,21.96
2023-01-28T05:43:38.798Z,21.91
2023-01-28T05:44:38.767Z,21.97
2023-01-28T05:45:38.822Z,21.96
2023-01-28T05:46:38.751Z,21.94
2023-01-28T05:47:38.751Z,21.97
2023-01-28T05:48:38.740Z,21.96
2023-01-28T05:49:38.738Z,22.02
2023-01-28T05:50:38.714Z,21.99
2023-01-28T05:51:38.723Z,21.93
2023-01-28T05:52:38.699Z,21.94
2023-01-28T05:53:38.682Z,21.95
2023-01-28T05:54:38.679Z,21.96
2023-01-28T05:55:38.665Z,21.90
2023-01-28T05:56:38.662Z,21.94
2023-01-28T05:57:38.660Z,21.93
2023-01-28T05:58:38.639Z,21.86
2023-01-28T05:59:38.653Z,21.88
2023-01-28T06:00:38.621Z,21.91
2023-01-28T06:01:38.616Z,21.92
2023-01-28T06:02:38.712Z,21.91
2023-01-28T06:03:38.591Z,21.86
2023-01-28T06:04:38.581Z,21.88
2023-01-28T06:05:38.644Z,21.88
2023-01-28T06:06:38.573Z,21.86
2023-01-28T06:07:38.559Z,21.86
2023-01-28T06:08:38.574Z,21.88
2023-01-28T06:09:38.536Z,21.90
2023-01-28T06:10:38.538Z,21.88
2023-01-28T06:11:38.522Z,21.90
2023-01-28T06:12:38.515Z,21.92
2023-01-28T06:13:38.502Z,21.85
2023-01-28T06:14:38.495Z,21.93
2023-01-28T06:15:38.620Z,21.95
2023-01-28T06:16:38.478Z,21.92
2023-01-28T06:17:38.472Z,21.92
2023-01-28T06:18:38.473Z,21.97
2023-01-28T06:19:38.473Z,21.91
2023-01-28T06:20:38.468Z,21.89
2023-01-28T06:21:38.436Z,21.88
2023-01-28T06:22:38.441Z,21.91
2023-01-28T06:23:38.418Z,21.94
2023-01-28T06:24:38.419Z,21.91
2023-01-28T06:25:38.397Z,21.91
2023-01-28T06:26:38.384Z,21.91
2023-01-28T06:27:38.378Z,21.94
2023-01-28T06:28:38.390Z,21.92
2023-01-28T06:29:38.364Z,21.94
2023-01-28T06:30:38.369Z,21.98
2023-01-28T06:31:38.363Z,21.97
2023-01-28T06:32:38.333Z,21.98
2023-01-28T06:33:38.320Z,21.89
2023-01-28T06:34:38.388Z,21.89
2023-01-28T06:35:38.315Z,21.91
2023-01-28T06:36:38.301Z,21.91
2023-01-28T06:37:38.288Z,21.91
2023-01-28T06:38:38.313Z,21.94
2023-01-28T06:39:38.316Z,21.95
2023-01-28T06:40:38.262Z,21.92
2023-01-28T06:41:38.252Z,21.91
2023-01-28T06:42:38.264Z,21.92
2023-01-28T06:43:38.234Z,21.91
2023-01-28T06:44:38.227Z,21.92
2023-01-28T06:45:38.220Z,21.86
2023-01-28T06:46:38.324Z,21.86
2023-01-28T06:47:38.226Z,21.92
2023-01-28T06:48:38.195Z,21.91
2023-01-28T06:49:38.204Z,21.85
2023-01-28T06:50:38.187Z,21.86
2023-01-28T06:51:38.177Z,21.91
2023-01-28T06:52:38.164Z,21.88
2023-01-28T06:53:38.150Z,21.83
2023-01-28T06:54:38.143Z,21.88
2023-01-28T06:55:38.146Z,21.91
2023-01-28T06:56:38.124Z,21.91
2023-01-28T06:57:38.108Z,21.86
2023-01-28T06:58:38.099Z,21.91
2023-01-28T06:59:38.102Z,21.93
2023-01-28T07:00:38.084Z,21.81
2023-01-28T07:01:38.099Z,21.91
2023-01-28T07:02:38.150Z,21.91
2023-01-28T07:03:38.103Z,22.00
2023-01-28T07:04:38.045Z,21.94
2023-01-28T07:05:38.044Z,21.95
2023-01-28T07:06:38.036Z,21.92
2023-01-28T07:07:40.771Z,21.88
2023-01-28T07:08:38.006Z,21.91
2023-01-28T07:09:37.999Z,21.89
2023-01-28T07:10:37.994Z,21.91
2023-01-28T07:11:38.023Z,22.00
2023-01-28T07:12:37.978Z,21.92
2023-01-28T07:13:37.969Z,21.89
2023-01-28T07:14:37.955Z,21.94
2023-01-28T07:15:37.955Z,21.94
2023-01-28T07:16:37.946Z,21.91
2023-01-28T07:17:37.941Z,21.95
2023-01-28T07:18:37.930Z,21.92
2023-01-28T07:19:37.936Z,21.91
2023-01-28T07:20:37.903Z,21.92
2023-01-28T07:21:37.897Z,21.94
2023-01-28T07:22:37.883Z,21.98
2023-01-28T07:23:37.880Z,21.91
2023-01-28T07:24:37.866Z,21.94
2023-01-28T07:25:37.860Z,21.91
2023-01-28T07:26:37.848Z,21.91
2023-01-28T07:27:37.847Z,21.97
2023-01-28T07:28:37.842Z,22.00
2023-01-28T07:29:37.822Z,21.94
2023-01-28T07:30:37.815Z,21.91
2023-01-28T07:31:37.950Z,21.95
2023-01-28T07:32:37.818Z,21.98
2023-01-28T07:33:37.797Z,21.92
2023-01-28T07:34:37.782Z,21.97
2023-01-28T07:35:37.795Z,21.92
2023-01-28T07:36:37.772Z,21.94
2023-01-28T07:37:37.748Z,21.91
2023-01-28T07:38:37.739Z,21.92
2023-01-28T07:39:37.731Z,21.91
2023-01-28T07:40:37.730Z,21.95
2023-01-28T07:41:37.713Z,21.92
2023-01-28T07:42:37.711Z,21.91
2023-01-28T07:43:37.696Z,21.95
2023-01-28T07:44:37.737Z,21.91
2023-01-28T07:45:37.683Z,21.88
2023-01-28T07:46:37.693Z,21.95
2023-01-28T07:47:37.662Z,21.97
2023-01-28T07:48:37.659Z,21.92
2023-01-28T07:49:37.646Z,21.95
2023-01-28T07:50:37.638Z,21.94
2023-01-28T07:51:37.656Z,21.92
2023-01-28T07:52:37.614Z,21.91
2023-01-28T07:53:37.606Z,21.91
2023-01-28T07:54:37.599Z,21.92
2023-01-28T07:55:37.597Z,21.92
2023-01-28T07:56:37.586Z,21.95
2023-01-28T07:57:37.579Z,21.92
2023-01-28T07:58:37.569Z,22.02
2023-01-28T07:59:37.554Z,21.98
2023-01-28T08:00:37.548Z,21.97
2023-01-28T08:01:37.560Z,21.95
2023-01-28T08:02:37.536Z,21.90
2023-01-28T08:03:37.521Z,21.97
2023-01-28T08:04:37.644Z,21.97
2023-01-28T08:05:37.501Z,21.92
2023-01-28T08:06:37.491Z,21.91
2023-01-28T08:07:37.514Z,21.91
2023-01-28T08:08:37.474Z,21.86
2023-01-28T08:09:37.466Z,21.83
2023-01-28T08:10:37.463Z,21.91
2023-01-28T08:11:37.448Z,21.88
2023-01-28T08:12:37.446Z,21.88
2023-01-28T08:13:37.444Z,21.86
2023-01-28T08:14:37.419Z,21.86
2023-01-28T08:15:37.492Z,21.88
2023-01-28T08:16:37.412Z,21.89
2023-01-28T08:17:37.395Z,21.88
2023-01-28T08:18:37.395Z,21.85
2023-01-28T08:19:37.378Z,21.89
2023-01-28T08:20:37.364Z,21.86
2023-01-28T08:21:37.364Z,21.82
2023-01-28T08:22:37.351Z,21.86
2023-01-28T08:23:37.366Z,21.86
2023-01-28T08:24:37.336Z,21.83
2023-01-28T08:25:37.329Z,21.89
2023-01-28T08:26:37.311Z,21.91
2023-01-28T08:27:37.310Z,21.86
2023-01-28T08:28:37.309Z,21.88
2023-01-28T08:29:37.290Z,21.93
2023-01-28T08:30:37.334Z,21.96
2023-01-28T08:31:37.424Z,21.86
2023-01-28T08:32:37.260Z,21.85
2023-01-28T08:33:37.329Z,21.85
2023-01-28T08:34:37.249Z,21.94
2023-01-28T08:35:37.235Z,21.89
2023-01-28T08:36:37.224Z,21.89
2023-01-28T08:37:37.246Z,21.97
2023-01-28T08:38:37.221Z,21.89
2023-01-28T08:39:37.239Z,21.86
2023-01-28T08:40:37.196Z,21.95
2023-01-28T08:41:37.185Z,21.94
2023-01-28T08:42:37.183Z,21.95
2023-01-28T08:43:37.163Z,22.03
2023-01-28T08:44:37.151Z,22.00
2023-01-28T08:45:37.142Z,21.98
2023-01-28T08:46:37.216Z,21.92
2023-01-28T08:47:37.159Z,21.95
2023-01-28T08:48:37.116Z,21.98
2023-01-28T08:49:37.109Z,21.95
2023-01-28T08:50:37.149Z,21.94
2023-01-28T08:51:37.101Z,21.97
2023-01-28T08:52:37.106Z,21.98
2023-01-28T08:53:37.081Z,22.00
2023-01-28T08:54:37.064Z,21.89
2023-01-28T08:55:37.077Z,21.98
2023-01-28T08:56:37.048Z,21.95
2023-01-28T08:57:37.044Z,21.98
2023-01-28T08:58:37.035Z,22.00
2023-01-28T08:59:37.021Z,21.98
2023-01-28T09:00:37.010Z,22.03
2023-01-28T09:01:37.019Z,21.97
2023-01-28T09:02:36.992Z,21.95
2023-01-28T09:03:37.102Z,21.98
2023-01-28T09:04:36.978Z,22.01
2023-01-28T09:05:36.974Z,21.98
2023-01-28T09:06:36.954Z,22.03
2023-01-28T09:07:36.944Z,22.05
2023-01-28T09:08:36.950Z,21.97
2023-01-28T09:09:36.947Z,22.06
2023-01-28T09:10:36.923Z,22.03
2023-01-28T09:11:36.938Z,22.01
2023-01-28T09:12:36.900Z,22.06
2023-01-28T09:13:36.890Z,22.06
2023-01-28T09:14:36.891Z,22.04
2023-01-28T09:15:36.871Z,22.03
2023-01-28T09:16:36.865Z,22.00
2023-01-28T09:17:36.856Z,22.00
2023-01-28T09:18:36.850Z,22.01
2023-01-28T09:19:36.842Z,22.01
2023-01-28T09:20:36.829Z,22.00
2023-01-28T09:21:36.819Z,22.00
2023-01-28T09:22:36.810Z,22.03
2023-01-28T09:23:36.816Z,22.04
2023-01-28T09:24:38.904Z,22.00
2023-01-28T09:25:36.812Z,22.02
2023-01-28T09:26:36.787Z,22.00
2023-01-28T09:27:36.798Z,21.97
2023-01-28T09:28:36.763Z,22.00
2023-01-28T09:29:36.746Z,21.95
2023-01-28T09:30:37.976Z,21.95
2023-01-28T09:31:36.778Z,22.00
2023-01-28T09:32:36.722Z,22.00
2023-01-28T09:33:36.725Z,22.02
2023-01-28T09:34:36.702Z,21.97
2023-01-28T09:35:36.693Z,22.02
2023-01-28T09:36:36.690Z,21.95
2023-01-28T09:37:36.695Z,22.00
2023-01-28T09:38:36.724Z,21.97
2023-01-28T09:39:36.659Z,21.95
2023-01-28T09:40:36.650Z,21.95
2023-01-28T09:41:36.651Z,22.00
2023-01-28T09:42:36.634Z,21.98
2023-01-28T09:43:36.645Z,21.94
2023-01-28T09:44:36.614Z,22.02
2023-01-28T09:45:36.612Z,21.98
2023-01-28T09:46:36.613Z,21.94
2023-01-28T09:47:36.598Z,21.98
2023-01-28T09:48:36.587Z,21.97
2023-01-28T09:49:36.566Z,22.03
2023-01-28T09:50:36.569Z,21.98
2023-01-28T09:51:36.557Z,21.98
2023-01-28T09:52:36.556Z,21.96
2023-01-28T09:53:36.551Z,22.00
2023-01-28T09:54:36.527Z,21.97
2023-01-28T09:55:36.518Z,22.00
2023-01-28T09:56:36.520Z,22.02
2023-01-28T09:57:36.508Z,22.02
2023-01-28T09:58:36.523Z,21.95
2023-01-28T09:59:36.504Z,21.98
2023-01-28T10:00:36.545Z,22.03
2023-01-28T10:01:36.480Z,22.02
2023-01-28T10:02:36.466Z,22.03
2023-01-28T10:03:36.544Z,22.05
2023-01-28T10:04:36.441Z,22.05
2023-01-28T10:05:38.528Z,22.02
2023-01-28T10:06:36.422Z,22.02
2023-01-28T10:07:36.409Z,22.02
2023-01-28T10:08:36.401Z,22.00
2023-01-28T10:09:36.398Z,22.00
2023-01-28T10:10:36.388Z,22.02
2023-01-28T10:11:36.373Z,22.03
2023-01-28T10:12:36.364Z,22.00
2023-01-28T10:13:36.353Z,22.00
2023-01-28T10:14:36.350Z,22.05
2023-01-28T10:15:36.361Z,22.06
2023-01-28T10:16:36.331Z,21.97
2023-01-28T10:17:36.375Z,22.05
2023-01-28T10:18:36.312Z,22.02
2023-01-28T10:19:36.295Z,22.02
2023-01-28T10:20:36.296Z,22.03
2023-01-28T10:21:36.283Z,22.00
2023-01-28T10:22:36.274Z,22.06
2023-01-28T10:23:36.267Z,22.03
2023-01-28T10:24:36.306Z,22.00
2023-01-28T10:25:36.253Z,21.99
2023-01-28T10:26:36.271Z,21.99
2023-01-28T10:27:36.233Z,22.02
2023-01-28T10:28:36.217Z,22.03
2023-01-28T10:29:36.222Z,22.05
2023-01-28T10:30:36.269Z,21.94
2023-01-28T10:31:36.259Z,22.02
2023-01-28T10:32:36.199Z,22.03
2023-01-28T10:33:36.173Z,21.97
2023-01-28T10:34:36.167Z,22.02
2023-01-28T10:35:36.156Z,21.99
2023-01-28T10:36:36.155Z,21.97
2023-01-28T10:37:36.146Z,21.99
2023-01-28T10:38:36.146Z,22.03
2023-01-28T10:39:36.123Z,22.00
2023-01-28T10:40:36.112Z,22.03
2023-01-28T10:41:39.959Z,22.06
2023-01-28T10:42:36.113Z,22.03
2023-01-28T10:43:36.099Z,22.09
2023-01-28T10:44:36.095Z,22.09
2023-01-28T10:45:36.126Z,22.11
2023-01-28T10:46:36.062Z,22.08
2023-01-28T10:47:36.079Z,22.03
2023-01-28T10:48:36.040Z,22.05
2023-01-28T10:49:36.038Z,22.02
2023-01-28T10:50:36.024Z,22.06
2023-01-28T10:51:36.016Z,22.02
2023-01-28T10:52:36.003Z,22.00
2023-01-28T10:53:36.007Z,22.05
2023-01-28T10:54:35.998Z,22.05
2023-01-28T10:55:35.986Z,22.08
2023-01-28T10:56:36.021Z,22.02
2023-01-28T10:57:35.975Z,22.02
2023-01-28T10:58:35.966Z,22.02
2023-01-28T10:59:35.961Z,22.07
2023-01-28T11:00:35.937Z,22.08
2023-01-28T11:01:35.934Z,22.02
2023-01-28T11:02:36.044Z,22.06
2023-01-28T11:03:35.928Z,21.99
2023-01-28T11:04:35.911Z,22.02
2023-01-28T11:05:35.905Z,21.99
2023-01-28T11:06:35.883Z,22.02
2023-01-28T11:07:35.872Z,22.04
2023-01-28T11:08:35.880Z,22.00
2023-01-28T11:09:35.865Z,22.05
2023-01-28T11:10:35.868Z,21.99
2023-01-28T11:11:35.836Z,22.08
2023-01-28T11:12:35.826Z,22.01
2023-01-28T11:13:35.817Z,22.03
2023-01-28T11:14:35.823Z,22.00
2023-01-28T11:15:35.811Z,22.05
2023-01-28T11:16:35.794Z,22.05
2023-01-28T11:17:35.895Z,22.04
2023-01-28T11:18:35.777Z,22.04
2023-01-28T11:19:35.811Z,22.02
2023-01-28T11:20:35.783Z,22.05
2023-01-28T11:21:35.759Z,22.07
2023-01-28T11:22:35.738Z,22.06
2023-01-28T11:23:35.738Z,22.05
2023-01-28T11:24:35.783Z,22.06
2023-01-28T11:25:35.716Z,22.10
2023-01-28T11:26:35.707Z,22.08
2023-01-28T11:27:36.481Z,22.07
2023-01-28T11:28:35.684Z,22.02
2023-01-28T11:29:35.683Z,22.08
2023-01-28T11:30:35.721Z,22.07
2023-01-28T11:31:35.736Z,22.10
2023-01-28T11:32:35.644Z,22.08
2023-01-28T11:33:35.637Z,22.05
2023-01-28T11:34:35.628Z,22.04
2023-01-28T11:35:35.651Z,22.07
2023-01-28T11:36:35.619Z,22.13
2023-01-28T11:37:35.620Z,22.08
2023-01-28T11:38:35.595Z,22.13
2023-01-28T11:39:35.587Z,22.06
2023-01-28T11:40:35.605Z,22.11
2023-01-28T11:41:35.564Z,22.10
2023-01-28T11:42:35.564Z,22.06
2023-01-28T11:43:35.551Z,22.13
2023-01-28T11:44:35.544Z,22.05
2023-01-28T11:45:35.601Z,22.07
2023-01-28T11:46:35.523Z,22.13
2023-01-28T11:47:35.518Z,22.08
2023-01-28T11:48:35.510Z,22.08
2023-01-28T11:49:35.496Z,22.13
2023-01-28T11:50:35.493Z,22.13
2023-01-28T11:51:35.541Z,22.11
2023-01-28T11:53:02.488Z,22.13
2023-01-28T11:53:35.469Z,22.07
2023-01-28T11:54:35.452Z,22.05
2023-01-28T11:55:35.443Z,22.08
2023-01-28T11:56:35.436Z,22.08
2023-01-28T11:57:35.429Z,22.06
2023-01-28T11:58:35.415Z,22.16
2023-01-28T11:59:35.415Z,22.11
2023-01-28T12:00:35.404Z,22.13
2023-01-28T12:01:35.390Z,22.10
2023-01-28T12:02:35.427Z,22.11
2023-01-28T12:03:35.369Z,22.08
2023-01-28T12:04:35.399Z,22.04
2023-01-28T12:05:35.356Z,22.08
2023-01-28T12:06:35.779Z,22.11
2023-01-28T12:07:35.387Z,22.11
2023-01-28T12:08:35.324Z,22.11
2023-01-28T12:09:35.328Z,22.14
2023-01-28T12:10:35.314Z,22.10
2023-01-28T12:11:35.303Z,22.11
2023-01-28T12:12:35.290Z,22.14
2023-01-28T12:13:35.285Z,22.13
2023-01-28T12:14:35.285Z,22.08
2023-01-28T12:15:35.358Z,22.07
2023-01-28T12:16:35.255Z,22.06
2023-01-28T12:17:35.245Z,22.01
2023-01-28T12:18:35.237Z,22.06
2023-01-28T12:19:35.231Z,22.07
2023-01-28T12:20:35.220Z,22.08
2023-01-28T12:21:35.230Z,22.07
2023-01-28T12:22:35.200Z,22.07
2023-01-28T12:23:35.218Z,22.03
2023-01-28T12:24:35.251Z,22.00
2023-01-28T12:25:35.170Z,22.01
2023-01-28T12:26:35.173Z,22.06
2023-01-28T12:27:35.156Z,22.00
2023-01-28T12:28:35.164Z,22.10
2023-01-28T12:29:35.137Z,22.01
2023-01-28T12:30:35.127Z,22.06
2023-01-28T12:31:35.298Z,21.98
2023-01-28T12:32:35.115Z,22.00
2023-01-28T12:33:35.101Z,22.04
2023-01-28T12:34:35.101Z,22.01
2023-01-28T12:35:35.088Z,22.00
2023-01-28T12:36:35.080Z,21.98
2023-01-28T12:37:35.069Z,22.01
2023-01-28T12:38:35.060Z,21.98
2023-01-28T12:39:35.079Z,22.03
2023-01-28T12:40:35.039Z,21.98
2023-01-28T12:41:36.010Z,22.03
2023-01-28T12:42:35.026Z,21.98
2023-01-28T12:43:35.026Z,21.94
2023-01-28T12:44:35.001Z,21.94
2023-01-28T12:45:35.020Z,22.03
2023-01-28T12:46:34.996Z,22.01
2023-01-28T12:47:34.975Z,22.00
2023-01-28T12:48:34.971Z,22.04
2023-01-28T12:49:34.961Z,22.06
2023-01-28T12:50:34.962Z,22.04
2023-01-28T12:51:34.940Z,22.07
2023-01-28T12:52:34.930Z,22.01
2023-01-28T12:53:34.925Z,22.09
2023-01-28T12:54:34.921Z,22.04
2023-01-28T12:55:34.930Z,22.01
2023-01-28T12:56:34.931Z,22.06
2023-01-28T12:57:34.895Z,22.07
2023-01-28T12:58:34.883Z,22.07
2023-01-28T12:59:34.874Z,22.01
2023-01-28T13:00:34.859Z,22.06
2023-01-28T13:01:34.853Z,22.04
2023-01-28T13:02:34.876Z,22.04
2023-01-28T13:03:34.835Z,22.03
2023-01-28T13:04:34.829Z,22.04
2023-01-28T13:05:34.824Z,22.03
2023-01-28T13:06:33.803Z,22.01
2023-01-28T13:07:34.796Z,22.00
2023-01-28T13:08:34.789Z,22.09
2023-01-28T13:09:34.781Z,22.03
2023-01-28T13:10:34.777Z,22.01
2023-01-28T13:11:34.797Z,22.00
2023-01-28T13:12:34.757Z,22.04
2023-01-28T13:13:34.759Z,22.06
2023-01-28T13:14:34.735Z,22.04
2023-01-28T13:15:34.729Z,22.06
2023-01-28T13:16:37.776Z,22.03
2023-01-28T13:17:34.734Z,22.03
2023-01-28T13:18:34.720Z,22.03
2023-01-28T13:19:34.690Z,22.05
2023-01-28T13:20:34.684Z,22.02
2023-01-28T13:21:47.497Z,22.02
2023-01-28T13:22:34.672Z,21.95
2023-01-28T13:23:34.652Z,21.98
2023-01-28T13:24:34.647Z,22.02
2023-01-28T13:25:34.644Z,22.05
2023-01-28T13:26:34.640Z,22.00
2023-01-28T13:27:34.650Z,22.05
2023-01-28T13:28:34.607Z,21.97
2023-01-28T13:29:34.597Z,22.00
2023-01-28T13:30:34.699Z,21.94
2023-01-28T13:31:34.582Z,22.03
2023-01-28T13:32:34.700Z,22.02
2023-01-28T13:33:34.566Z,22.02
2023-01-28T13:34:34.603Z,22.06
2023-01-28T13:35:34.551Z,22.07
2023-01-28T13:36:34.547Z,22.07
2023-01-28T13:37:34.565Z,22.12
2023-01-28T13:38:34.537Z,22.10
2023-01-28T13:39:34.511Z,22.13
2023-01-28T13:40:34.505Z,22.12
2023-01-28T13:41:34.496Z,22.16
2023-01-28T13:42:34.488Z,22.16
2023-01-28T13:43:34.513Z,22.19
2023-01-28T13:44:35.034Z,22.18
2023-01-28T13:45:34.504Z,22.24
2023-01-28T13:46:34.453Z,22.21
2023-01-28T13:47:34.461Z,22.18